Time;durP1;ratioP1;P1;durP2;ratioP2;P2;SDS_P1;SDS_P2;PMS_P1;PMS_P2;Temp;Humidity;BMP_temperature;BMP_pressure;BME280_temperature;BME280_humidity;BME280_pressure;Samples;Min_cycle;Max_cycle;Signal;HPM_P1;HPM_P2
2021/06/26 00:03:52;;;;;;;5.07;3.63;;;;;;;16.04;100.00;101620.70;1932192;72;39737;-69
2021/06/26 00:09:16;;;;;;;3.63;3.30;;;;;;;16.21;100.00;101613.98;1832285;78;86575;-69
2021/06/26 00:14:40;;;;;;;6.33;3.60;;;;;;;15.99;100.00;101610.97;1937548;72;39628;-69
2021/06/26 00:20:07;;;;;;;5.67;3.90;;;;;;;15.83;100.00;101616.53;1906136;72;39672;-69
2021/06/26 00:25:32;;;;;;;4.87;4.17;;;;;;;15.72;100.00;101618.62;1881471;75;86687;-72
2021/06/26 00:30:58;;;;;;;4.37;3.97;;;;;;;15.76;100.00;101625.86;1944951;73;39554;-71
2021/06/26 00:36:23;;;;;;;5.00;4.53;;;;;;;15.92;100.00;101635.14;1760837;80;86000;-69
2021/06/26 00:41:47;;;;;;;4.70;4.10;;;;;;;15.89;100.00;101634.92;1946218;73;39513;-69
2021/06/26 00:47:12;;;;;;;5.83;4.77;;;;;;;16.01;100.00;101637.27;1889776;75;86529;-68
2021/06/26 00:52:35;;;;;;;7.90;5.80;;;;;;;16.08;100.00;101634.38;1949272;73;39473;-70
2021/06/26 00:58:02;;;;;;;6.67;5.97;;;;;;;16.10;100.00;101629.28;1912275;73;39835;-68
2021/06/26 01:03:33;;;;;;;6.50;5.73;;;;;;;16.12;100.00;101627.59;1785177;79;85498;-68
2021/06/26 01:08:57;;;;;;;6.60;6.00;;;;;;;15.93;100.00;101624.20;1912793;73;39716;-69
2021/06/26 01:14:21;;;;;;;7.97;6.00;;;;;;;15.82;100.00;101626.91;1837677;77;86258;-68
2021/06/26 01:19:45;;;;;;;7.30;6.37;;;;;;;15.83;100.00;101620.14;1918766;73;39490;-69
2021/06/26 01:25:13;;;;;;;6.93;6.20;;;;;;;15.88;100.00;101617.84;1882295;75;86416;-70
2021/06/26 01:30:38;;;;;;;7.40;6.67;;;;;;;15.85;100.00;101616.48;1923533;73;39683;-70
2021/06/26 01:36:03;;;;;;;7.73;6.97;;;;;;;15.93;100.00;101631.21;1909631;73;39776;-70
2021/06/26 01:41:38;;;;;;;7.30;6.70;;;;;;;16.20;100.00;101635.31;1838347;77;86500;-70
2021/06/26 01:47:05;;;;;;;7.77;6.80;;;;;;;16.28;100.00;101641.06;1889387;73;39607;-69
2021/06/26 01:52:28;;;;;;;6.80;6.10;;;;;;;16.30;100.00;101624.75;1838304;77;86514;-69
2021/06/26 01:57:55;;;;;;;8.50;7.03;;;;;;;16.39;100.00;101625.73;1945458;73;39577;-68
2021/06/26 02:03:21;;;;;;;8.13;7.33;;;;;;;16.43;100.00;101630.75;1837711;77;86527;-68
2021/06/26 02:08:45;;;;;;;7.77;6.97;;;;;;;16.36;100.00;101629.16;1946821;73;39701;-70
2021/06/26 02:14:11;;;;;;;8.60;7.60;;;;;;;16.48;100.00;101638.48;1882350;75;85826;-70
2021/06/26 02:19:36;;;;;;;9.37;7.90;;;;;;;16.45;100.00;101637.70;1929499;72;39651;-68
2021/06/26 02:25:08;;;;;;;8.17;7.37;;;;;;;16.46;100.00;101641.34;1877059;75;86410;-71
2021/06/26 02:30:32;;;;;;;7.97;7.17;;;;;;;16.44;100.00;101650.05;1838638;77;86759;-69
2021/06/26 02:35:57;;;;;;;7.77;6.83;;;;;;;16.45;100.00;101646.69;1928176;72;39773;-70
2021/06/26 02:41:22;;;;;;;7.83;5.83;;;;;;;16.51;100.00;101648.28;1837813;77;86705;-71
2021/06/26 02:46:46;;;;;;;8.20;7.40;;;;;;;16.43;100.00;101641.37;1902631;73;39662;-69
2021/06/26 02:52:09;;;;;;;7.87;6.33;;;;;;;16.36;100.00;101638.97;1877188;75;85775;-69
2021/06/26 02:57:35;;;;;;;7.30;6.60;;;;;;;16.26;100.00;101641.08;1949211;73;39637;-70
2021/06/26 03:03:02;;;;;;;7.87;6.40;;;;;;;16.28;100.00;101637.42;1943556;73;39528;-69
2021/06/26 03:08:26;;;;;;;7.47;6.50;;;;;;;16.25;100.00;101641.67;1752391;80;86451;-71
2021/06/26 03:13:50;;;;;;;7.90;6.87;;;;;;;16.20;100.00;101646.52;1945810;73;39449;-70
2021/06/26 03:19:14;;;;;;;9.37;7.67;;;;;;;16.16;100.00;101644.06;1837291;77;86553;-71
2021/06/26 03:24:39;;;;;;;8.37;7.03;;;;;;;16.17;100.00;101651.34;1923269;73;39457;-69
2021/06/26 03:30:06;;;;;;;9.73;7.43;;;;;;;16.03;100.00;101647.63;1897623;73;39563;-68
2021/06/26 03:35:35;;;;;;;8.00;7.10;;;;;;;16.06;100.00;101645.04;1869382;77;86459;-70
2021/06/26 03:41:00;;;;;;;8.07;6.77;;;;;;;16.02;100.00;101651.55;1911253;73;39517;-71
2021/06/26 03:46:24;;;;;;;7.60;6.03;;;;;;;16.07;100.00;101649.52;1799842;78;86528;-69
2021/06/26 03:51:47;;;;;;;7.43;6.30;;;;;;;16.02;100.00;101655.75;1918034;73;39517;-70
2021/06/26 03:57:11;;;;;;;6.17;5.57;;;;;;;16.17;100.00;101643.73;1877216;75;86207;-71
2021/06/26 04:02:36;;;;;;;8.47;6.40;;;;;;;16.14;100.00;101642.95;1875786;74;86985;-70
2021/06/26 04:08:03;;;;;;;9.33;7.00;;;;;;;16.00;100.00;101646.83;1943412;73;39621;-68
2021/06/26 04:13:27;;;;;;;9.83;7.47;;;;;;;15.92;100.00;101649.16;1869386;77;86345;-69
2021/06/26 04:18:52;;;;;;;8.47;7.57;;;;;;;15.90;100.00;101656.20;1934358;72;39542;-70
2021/06/26 04:24:16;;;;;;;8.63;6.83;;;;;;;15.91;100.00;101656.48;1837378;77;86415;-69
2021/06/26 04:29:41;;;;;;;12.97;8.23;;;;;;;15.96;100.00;101663.39;1947576;73;39696;-69
2021/06/26 04:35:07;;;;;;;9.17;7.67;;;;;;;15.97;100.00;101669.83;1910158;74;86401;-71
2021/06/26 04:40:32;;;;;;;9.83;8.57;;;;;;;15.98;100.00;101666.73;1838617;77;85437;-69
2021/06/26 04:45:56;;;;;;;11.17;8.07;;;;;;;16.07;100.00;101673.34;1917850;73;39609;-69
2021/06/26 04:51:20;;;;;;;11.07;8.33;;;;;;;16.07;100.00;101680.34;1867739;75;86352;-70
2021/06/26 04:56:45;;;;;;;9.63;8.33;;;;;;;16.18;100.00;101688.03;1919765;73;39431;-70
2021/06/26 05:02:09;;;;;;;10.77;8.57;;;;;;;16.21;100.00;101688.28;1877713;75;87006;-69
2021/06/26 05:07:34;;;;;;;12.20;10.70;;;;;;;16.38;100.00;101688.58;1907742;73;39406;-70
2021/06/26 05:12:59;;;;;;;11.87;9.83;;;;;;;16.31;100.00;101693.72;1892684;73;39577;-69
2021/06/26 05:18:23;;;;;;;15.13;12.10;;;;;;;16.37;100.00;101690.27;1764601;79;86607;-70
2021/06/26 05:23:49;;;;;;;12.27;10.63;;;;;;;16.45;100.00;101697.16;1946393;73;39583;-71
2021/06/26 05:29:13;;;;;;;11.90;10.57;;;;;;;16.40;100.00;101697.51;1877180;75;86653;-71
2021/06/26 05:34:38;;;;;;;11.93;10.67;;;;;;;16.64;100.00;101702.23;1948860;73;39846;-71
2021/06/26 05:40:03;;;;;;;11.97;10.10;;;;;;;16.74;100.00;101714.11;1910196;73;39640;-69
2021/06/26 05:48:14;;;;;;;12.43;10.47;;;;;;;16.85;100.00;101724.61;1915458;75;86034;-71
2021/06/26 05:50:44;;;;;;;14.97;10.37;;;;;;;16.93;100.00;101735.70;1854491;75;939034;-69
2021/06/26 05:53:14;;;;;;;13.13;10.73;;;;;;;17.06;100.00;101729.30;1866710;75;941017;-69
2021/06/26 05:55:55;;;;;;;14.83;10.63;;;;;;;17.25;100.00;101726.69;1854479;76;941104;-70
2021/06/26 05:58:16;;;;;;;12.10;9.93;;;;;;;17.40;100.00;101724.17;1864277;75;940791;-69
2021/06/26 06:00:46;;;;;;;11.40;9.85;;;;;;;17.36;100.00;101730.16;1854459;75;939111;-69
2021/06/26 06:03:16;;;;;;;12.20;10.00;;;;;;;17.27;100.00;101733.41;1866737;75;938810;-71
2021/06/26 06:05:46;;;;;;;13.43;10.07;;;;;;;17.24;100.00;101726.42;1854450;75;940899;-68
2021/06/26 06:08:17;;;;;;;10.37;8.93;;;;;;;17.18;100.00;101733.85;1866594;75;940795;-71
2021/06/26 06:10:47;;;;;;;13.08;10.55;;;;;;;17.24;100.00;101736.84;1854351;76;938960;-71
2021/06/26 06:13:18;;;;;;;13.90;10.20;;;;;;;17.12;100.00;101740.69;1866729;76;940799;-69
2021/06/26 06:15:50;;;;;;;13.22;9.53;;;;;;;17.10;100.00;101739.61;1854452;76;940365;-71
2021/06/26 06:18:21;;;;;;;13.27;10.43;;;;;;;17.13;100.00;101739.55;1802962;78;938729;-69
2021/06/26 06:20:51;;;;;;;11.12;9.63;;;;;;;17.13;100.00;101743.20;1785114;77;940796;-69
2021/06/26 06:23:22;;;;;;;11.23;9.57;;;;;;;17.07;100.00;101744.41;1779247;79;938752;-69
2021/06/26 06:25:53;;;;;;;10.23;9.05;;;;;;;17.05;100.00;101747.27;1790010;78;938790;-69
2021/06/26 06:28:23;;;;;;;11.67;9.07;;;;;;;17.25;100.00;101744.94;1783069;78;938948;-71
2021/06/26 06:30:53;;;;;;;11.40;8.65;;;;;;;17.50;100.00;101738.61;1773651;79;938983;-69
2021/06/26 06:33:23;;;;;;;10.53;8.20;;;;;;;17.50;100.00;101738.61;1769661;79;938596;-69
2021/06/26 06:35:53;;;;;;;10.27;9.27;;;;;;;17.70;100.00;101745.25;1802804;77;938792;-69
2021/06/26 06:38:23;;;;;;;11.07;8.47;;;;;;;17.63;100.00;101751.84;1790106;78;938855;-69
2021/06/26 06:40:53;;;;;;;11.73;8.27;;;;;;;17.56;100.00;101740.16;1763342;79;937854;-69
2021/06/26 06:43:23;;;;;;;10.57;8.60;;;;;;;17.57;100.00;101727.78;1776311;78;938700;-72
2021/06/26 06:48:48;;;;;;;10.07;9.00;;;;;;;17.88;100.00;101726.62;1946498;73;39593;-68
2021/06/26 06:54:12;;;;;;;10.20;8.40;;;;;;;17.94;100.00;101734.63;1877132;75;85712;-68
2021/06/26 06:59:36;;;;;;;9.93;8.77;;;;;;;17.93;100.00;101733.52;1939199;72;39587;-72
2021/06/26 07:05:04;;;;;;;10.80;8.63;;;;;;;18.00;100.00;101729.73;1911021;73;39775;-74
2021/06/26 07:10:29;;;;;;;13.80;11.40;;;;;;;18.05;100.00;101726.83;1838409;77;86961;-68
2021/06/26 07:15:53;;;;;;;14.47;12.47;;;;;;;17.94;100.00;101723.38;1918384;73;39463;-68
2021/06/26 07:21:17;;;;;;;12.20;11.00;;;;;;;17.96;100.00;101745.57;1837391;77;86583;-72
2021/06/26 07:26:42;;;;;;;10.97;9.87;;;;;;;17.99;100.00;101745.77;1903168;73;40141;-72
2021/06/26 07:32:07;;;;;;;11.30;10.20;;;;;;;17.84;100.00;101753.09;1891585;74;86531;-68
2021/06/26 07:37:35;;;;;;;12.70;10.23;;;;;;;18.23;100.00;101748.94;1838737;77;86630;-72
2021/06/26 07:43:00;;;;;;;10.27;9.20;;;;;;;18.60;100.00;101739.66;1943939;73;39526;-72
2021/06/26 07:48:23;;;;;;;8.33;7.53;;;;;;;18.88;100.00;101736.70;1784967;79;85973;-68
2021/06/26 07:53:47;;;;;;;12.13;10.07;;;;;;;19.26;100.00;101735.72;1946292;73;39515;-78
2021/06/26 07:59:13;;;;;;;9.30;8.13;;;;;;;18.86;100.00;101730.59;1877014;75;86420;-77
2021/06/26 08:04:41;;;;;;;11.27;9.13;;;;;;;18.73;100.00;101732.30;1947662;73;39507;-80
2021/06/26 08:10:08;;;;;;;12.37;10.87;;;;;;;19.02;100.00;101736.91;1877085;75;86331;-69
2021/06/26 08:15:36;;;;;;;11.13;9.77;;;;;;;19.57;100.00;101726.73;1838889;77;85266;-70
2021/06/26 08:21:02;;;;;;;10.53;9.53;;;;;;;20.08;100.00;101722.42;1912972;73;40333;-76
2021/06/26 08:26:25;;;;;;;9.33;8.30;;;;;;;20.30;100.00;101718.11;1860847;76;86193;-69
2021/06/26 08:31:49;;;;;;;9.63;8.40;;;;;;;19.78;100.00;101719.93;1917850;73;39483;-69
2021/06/26 08:37:13;;;;;;;10.70;9.60;;;;;;;20.23;100.00;101719.16;1877135;75;86534;-70
2021/06/26 08:42:38;;;;;;;10.17;8.90;;;;;;;20.68;100.00;101716.31;1905828;73;39469;-69
2021/06/26 08:48:02;;;;;;;9.40;8.57;;;;;;;21.14;100.00;101720.43;1943700;73;39775;-73
2021/06/26 08:53:26;;;;;;;10.40;9.20;;;;;;;20.95;100.00;101719.38;1785256;79;86627;-73
2021/06/26 08:58:52;;;;;;;8.43;7.30;;;;;;;21.47;100.00;101722.11;1898882;72;39785;-72
2021/06/26 09:04:18;;;;;;;9.63;8.70;;;;;;;21.57;100.00;101711.83;1837424;77;85618;-68
2021/06/26 09:09:44;;;;;;;9.10;8.20;;;;;;;21.59;100.00;101721.65;1946853;73;40314;-70
2021/06/26 09:15:12;;;;;;;5.47;4.30;;;;;;;21.49;100.00;101715.52;1877393;75;86741;-70
2021/06/26 09:20:40;;;;;;;8.63;7.00;;;;;;;21.83;100.00;101721.61;1924209;73;39698;-70
2021/06/26 09:26:16;;;;;;;8.00;5.10;;;;;;;21.74;100.00;101719.66;1868930;76;86386;-70
2021/06/26 09:31:51;;;;;;;5.37;4.17;;;;;;;21.80;100.00;101725.96;1948360;73;39698;-68
2021/06/26 09:37:22;;;;;;;4.60;3.50;;;;;;;21.81;100.00;101727.63;1837316;77;86326;-69
2021/06/26 09:42:49;;;;;;;5.80;4.37;;;;;;;21.99;100.00;101726.99;1918081;73;39777;-69
2021/06/26 09:48:14;;;;;;;5.20;4.40;;;;;;;21.91;100.00;101724.40;1877201;75;86751;-69
2021/06/26 09:53:38;;;;;;;6.23;3.20;;;;;;;21.50;100.00;101717.19;1948742;73;40339;-69
2021/06/26 09:59:03;;;;;;;5.10;3.50;;;;;;;21.85;100.00;101716.45;1943660;73;39569;-71
2021/06/26 10:04:29;;;;;;;4.37;3.97;;;;;;;21.96;100.00;101722.00;1838382;77;86518;-71
2021/06/26 10:09:55;;;;;;;3.90;3.40;;;;;;;21.92;100.00;101726.64;1914152;73;39780;-70
2021/06/26 10:15:22;;;;;;;3.53;3.23;;;;;;;22.17;100.00;101725.11;1832732;78;86760;-70
2021/06/26 10:20:49;;;;;;;4.05;3.65;;;;;;;22.20;100.00;101732.95;1901374;73;39795;-70
2021/06/26 10:26:13;;;;;;;3.70;3.00;;;;;;;21.79;100.00;101737.86;1882657;75;86312;-69
2021/06/26 10:31:46;;;;;;;5.45;3.50;;;;;;;21.41;100.00;101737.00;1935560;72;39497;-69
2021/06/26 10:37:21;;;;;;;3.03;2.80;;;;;;;21.87;100.00;101744.63;1892796;74;86174;-70
2021/06/26 10:40:03;;;;;;;3.60;2.77;;;;;;;21.90;100.00;101737.48;1844636;75;934680;-72
2021/06/26 10:45:29;;;;;;;3.23;2.50;;;;;;;22.11;100.00;101736.41;1840131;76;86329;-70
2021/06/26 10:50:56;;;;;;;3.37;2.43;;;;;;;22.03;100.00;101735.88;1931006;73;40074;-70
2021/06/26 10:59:14;;;;;;;3.00;2.43;;;;;;;22.00;100.00;101724.38;1915350;75;86663;-70
2021/06/26 11:01:55;;;;;;;2.33;2.10;;;;;;;21.95;100.00;101729.64;1854774;76;934664;-70
2021/06/26 11:04:26;;;;;;;3.87;2.17;;;;;;;22.00;100.00;101737.12;1866816;76;936763;-71
2021/06/26 11:07:07;;;;;;;2.47;1.95;;;;;;;22.03;100.00;101734.46;1820717;77;936651;-69
2021/06/26 11:09:39;;;;;;;3.73;2.00;;;;;;;21.79;100.00;101741.27;1799382;79;934792;-70
2021/06/26 11:12:12;;;;;;;2.33;1.77;;;;;;;21.86;100.00;101737.34;1781458;79;936970;-69
2021/06/26 11:14:54;;;;;;;2.63;2.40;;;;;;;22.00;100.00;101735.70;1795037;78;936890;-70
2021/06/26 11:17:26;;;;;;;3.10;1.70;;;;;;;22.33;100.00;101736.69;1806753;77;936687;-70
2021/06/26 11:19:57;;;;;;;2.13;1.67;;;;;;;22.27;100.00;101734.38;1814379;77;936755;-70
2021/06/26 11:22:27;;;;;;;2.73;2.00;;;;;;;22.32;100.00;101727.11;1823003;77;934865;-70
2021/06/26 11:24:57;;;;;;;2.10;1.65;;;;;;;22.40;100.00;101731.30;1770107;78;936734;-70
2021/06/26 11:27:27;;;;;;;2.67;1.97;;;;;;;22.57;100.00;101722.67;1793896;78;934814;-70
2021/06/26 11:30:03;;;;;;;2.83;1.40;;;;;;;22.66;100.00;101733.94;1819521;77;936764;-70
2021/06/26 11:32:35;;;;;;;2.60;2.10;;;;;;;22.68;100.00;101734.40;1819911;77;934767;-70
2021/06/26 11:35:10;;;;;;;2.37;1.90;;;;;;;22.49;100.00;101736.31;1818821;77;936849;-70
2021/06/26 11:37:41;;;;;;;2.37;1.70;;;;;;;22.47;100.00;101735.81;1831389;77;934903;-71
2021/06/26 11:40:31;;;;;;;3.37;2.00;;;;;;;22.50;100.00;101734.31;1831380;77;936599;-70
2021/06/26 11:43:05;;;;;;;6.30;2.53;;;;;;;22.49;100.00;101730.66;1789386;78;936841;-70
2021/06/26 11:48:31;;;;;;;2.57;2.37;;;;;;;22.64;100.00;101734.27;1785186;79;86569;-69
2021/06/26 11:53:57;;;;;;;2.25;2.00;;;;;;;22.41;100.00;101734.38;1944661;73;39704;-70
2021/06/26 11:59:22;;;;;;;1.57;1.20;;;;;;;22.53;100.00;101729.38;1837832;77;86863;-69
2021/06/26 12:04:46;;;;;;;1.40;1.27;;;;;;;22.38;100.00;101735.05;1923235;73;39429;-70
2021/06/26 12:10:13;;;;;;;2.47;1.70;;;;;;;22.73;100.00;101715.81;1877447;75;86372;-70
2021/06/26 12:15:37;;;;;;;2.23;1.67;;;;;;;22.71;100.00;101728.09;1948802;73;39702;-69
2021/06/26 12:23:57;;;;;;;2.07;1.70;;;;;;;22.62;100.00;101712.56;1951850;70;39814;-70
2021/06/26 12:26:28;;;;;;;2.27;1.50;;;;;;;22.65;100.00;101719.52;1845290;76;932653;-70
2021/06/26 12:28:58;;;;;;;2.05;1.70;;;;;;;22.61;100.00;101722.22;1833185;76;936587;-69
2021/06/26 12:31:29;;;;;;;1.50;1.10;;;;;;;22.59;100.00;101717.48;1835536;77;934789;-70
2021/06/26 12:34:04;;;;;;;1.40;1.30;;;;;;;22.59;100.00;101725.17;1802456;76;937038;-70
2021/06/26 12:36:36;;;;;;;2.17;1.45;;;;;;;22.64;100.00;101727.77;1835581;77;934779;-69
2021/06/26 12:39:07;;;;;;;1.50;1.40;;;;;;;22.50;100.00;101725.83;1847444;76;936629;-70
2021/06/26 12:41:37;;;;;;;1.60;1.40;;;;;;;22.56;100.00;101725.84;1871597;75;934713;-71
2021/06/26 12:44:09;;;;;;;1.87;1.57;;;;;;;22.55;100.00;101726.42;1838138;76;937250;-69
2021/06/26 12:49:36;;;;;;;1.47;1.37;;;;;;;22.72;100.00;101721.23;1930363;73;39481;-72
2021/06/26 12:55:18;;;;;;;1.50;1.30;;;;;;;22.96;100.00;101724.20;1877335;75;86256;-71
2021/06/26 13:00:43;;;;;;;1.13;1.10;;;;;;;22.94;100.00;101718.03;1920580;73;39570;-70
2021/06/26 13:06:12;;;;;;;1.47;1.20;;;;;;;22.89;100.00;101724.53;1877081;75;86591;-69
2021/06/26 13:11:44;;;;;;;2.52;1.40;;;;;;;22.95;100.00;101721.70;1920184;73;39597;-71
2021/06/26 13:17:11;;;;;;;1.80;1.30;;;;;;;22.96;100.00;101721.37;1877173;75;85587;-71
2021/06/26 13:22:37;;;;;;;1.57;1.27;;;;;;;23.03;100.00;101722.20;1949202;73;39515;-70
2021/06/26 13:28:05;;;;;;;2.27;1.72;;;;;;;22.99;100.00;101717.83;1931225;72;39445;-70
2021/06/26 13:33:29;;;;;;;2.57;1.30;;;;;;;22.82;100.00;101717.98;1777529;79;86151;-70
2021/06/26 13:38:54;;;;;;;1.20;1.10;;;;;;;22.95;100.00;101720.28;1945145;73;39566;-70
2021/06/26 13:44:19;;;;;;;1.27;1.17;;;;;;;22.81;100.00;101711.24;1867745;75;86493;-71
2021/06/26 13:49:42;;;;;;;1.55;1.45;;;;;;;23.04;100.00;101709.11;1936681;72;39496;-69
2021/06/26 13:55:08;;;;;;;2.83;1.50;;;;;;;23.09;100.00;101703.81;1891639;75;86637;-71
2021/06/26 14:00:32;;;;;;;1.45;1.35;;;;;;;23.43;100.00;101705.44;1838659;77;86390;-69
2021/06/26 14:05:56;;;;;;;2.30;1.60;;;;;;;23.37;100.00;101703.41;1913239;73;39465;-69
2021/06/26 14:11:22;;;;;;;1.55;1.40;;;;;;;23.25;100.00;101713.89;1837927;77;85604;-73
2021/06/26 14:16:46;;;;;;;1.62;1.15;;;;;;;23.05;100.00;101704.28;1946481;73;39642;-73
2021/06/26 14:22:11;;;;;;;1.42;1.10;;;;;;;22.99;100.00;101699.99;1877134;75;85961;-76
2021/06/26 14:27:36;;;;;;;1.70;1.32;;;;;;;23.00;100.00;101705.32;1949103;73;39583;-70
2021/06/26 14:33:03;;;;;;;1.90;1.30;;;;;;;22.97;100.00;101704.61;1943627;73;39565;-70
2021/06/26 14:38:28;;;;;;;1.77;1.40;;;;;;;23.18;100.00;101698.89;1838289;77;86418;-70
2021/06/26 14:43:52;;;;;;;1.60;1.00;;;;;;;23.09;100.00;101706.66;1945466;73;39715;-73
2021/06/26 14:49:16;;;;;;;3.70;1.32;;;;;;;23.04;100.00;101703.45;1883250;75;85514;-71
2021/06/26 14:55:01;;;;;;;1.77;1.30;;;;;;;23.05;100.00;101690.11;1989824;71;39509;-72
2021/06/26 15:00:25;;;;;;;1.40;1.30;;;;;;;23.06;100.00;101690.35;1858697;76;86748;-71
2021/06/26 15:05:50;;;;;;;1.50;1.40;;;;;;;23.12;100.00;101682.68;1917829;73;39670;-70
2021/06/26 15:11:15;;;;;;;1.57;1.40;;;;;;;23.18;100.00;101679.05;1892978;75;86342;-71
2021/06/26 15:16:39;;;;;;;1.45;1.30;;;;;;;23.12;100.00;101665.67;1938602;72;39516;-71
2021/06/26 15:22:04;;;;;;;1.87;1.07;;;;;;;23.18;100.00;101676.80;1943569;73;39649;-71
2021/06/26 15:27:28;;;;;;;1.30;1.20;;;;;;;23.03;100.00;101673.44;1820788;77;86980;-70
2021/06/26 15:32:53;;;;;;;1.70;1.42;;;;;;;23.20;100.00;101668.75;1945382;73;39597;-70
2021/06/26 15:38:18;;;;;;;2.02;1.17;;;;;;;23.18;100.00;101668.30;1878182;75;86437;-71
2021/06/26 15:43:42;;;;;;;2.12;1.00;;;;;;;23.19;100.00;101676.42;1920969;73;39671;-73
2021/06/26 15:49:07;;;;;;;1.60;1.12;;;;;;;23.02;100.00;101679.45;1845826;77;86876;-73
2021/06/26 15:54:34;;;;;;;1.40;1.20;;;;;;;23.03;100.00;101674.86;1838849;77;85983;-70
2021/06/26 16:00:06;;;;;;;1.20;1.10;;;;;;;23.03;100.00;101679.69;1943844;73;39649;-72
2021/06/26 16:05:30;;;;;;;1.40;0.90;;;;;;;23.29;100.00;101675.16;1764351;79;86155;-70
2021/06/26 16:13:42;;;;;;;1.15;0.90;;;;;;;23.36;100.00;101669.75;2003364;69;39614;-72
2021/06/26 16:16:12;;;;;;;2.22;1.30;;;;;;;23.30;100.00;101667.72;1881484;74;934846;-71
2021/06/26 16:18:42;;;;;;;2.55;1.20;;;;;;;23.43;100.00;101669.44;1883337;75;936684;-72
2021/06/26 16:21:12;;;;;;;1.62;1.40;;;;;;;23.35;100.00;101672.34;1929558;73;936700;-72
2021/06/26 16:23:42;;;;;;;3.45;1.65;;;;;;;23.43;100.00;101677.08;1883247;74;944953;-74
2021/06/26 16:26:11;;;;;;;2.37;1.27;;;;;;;23.46;100.00;101676.39;1929467;73;936640;-73
2021/06/26 16:28:41;;;;;;;2.02;1.30;;;;;;;23.36;100.00;101676.84;1883319;75;936840;-73
2021/06/26 16:31:11;;;;;;;1.90;1.10;;;;;;;23.35;100.00;101676.59;1880424;75;936690;-72
2021/06/26 16:33:41;;;;;;;2.45;1.62;;;;;;;23.31;100.00;101680.73;1881860;75;936686;-75
2021/06/26 16:36:11;;;;;;;1.40;1.20;;;;;;;23.33;100.00;101674.69;1895818;75;936685;-75
2021/06/26 16:38:43;;;;;;;1.40;1.30;;;;;;;23.45;100.00;101674.14;1916972;73;936908;-75
2021/06/26 16:41:14;;;;;;;1.42;1.10;;;;;;;23.36;100.00;101664.88;1898846;73;936542;-74
2021/06/26 16:43:44;;;;;;;1.37;1.22;;;;;;;23.23;100.00;101657.56;1916809;73;936614;-72
2021/06/26 16:49:10;;;;;;;1.80;1.30;;;;;;;23.24;100.00;101652.11;1877328;75;86663;-73
2021/06/26 16:54:34;;;;;;;1.80;1.42;;;;;;;23.41;100.00;101651.90;1949537;73;40058;-73
2021/06/26 16:59:59;;;;;;;2.50;1.60;;;;;;;23.44;100.00;101644.74;1927801;72;39633;-73
2021/06/26 17:05:23;;;;;;;1.92;1.47;;;;;;;23.29;100.00;101653.30;1769607;76;85534;-74
2021/06/26 17:10:49;;;;;;;1.72;1.45;;;;;;;23.11;100.00;101650.42;1935184;72;39577;-75
2021/06/26 17:16:14;;;;;;;1.65;1.55;;;;;;;23.17;100.00;101648.20;1882930;75;86481;-75
2021/06/26 17:21:39;;;;;;;2.08;1.82;;;;;;;23.17;100.00;101635.45;1923148;73;39485;-73
2021/06/26 17:27:09;;;;;;;2.15;1.92;;;;;;;23.15;100.00;101644.29;1910810;72;39575;-76
2021/06/26 17:32:34;;;;;;;3.47;2.22;;;;;;;23.14;100.00;101641.24;1949191;73;39677;-74
2021/06/26 17:38:00;;;;;;;2.40;2.20;;;;;;;22.94;100.00;101648.61;1913122;73;39564;-76
2021/06/26 17:43:26;;;;;;;2.08;1.87;;;;;;;22.85;100.00;101652.12;1820123;77;86243;-77
2021/06/26 17:48:51;;;;;;;2.20;2.00;;;;;;;22.35;100.00;101662.14;1916590;73;39712;-77
2021/06/26 17:57:21;;;;;;;2.77;2.58;;;;;;;22.36;100.00;101672.30;1915152;75;86869;-72
2021/06/26 17:59:51;;;;;;;3.02;2.72;;;;;;;22.27;100.00;101673.52;1819326;77;934742;-75
2021/06/26 18:02:21;;;;;;;2.80;2.50;;;;;;;22.25;100.00;101675.27;1831255;77;936612;-77
2021/06/26 18:04:53;;;;;;;2.70;2.50;;;;;;;22.23;100.00;101664.31;1819250;77;936790;-77
2021/06/26 18:07:23;;;;;;;3.77;2.20;;;;;;;22.16;100.00;101667.46;1831266;77;936546;-72
2021/06/26 18:09:54;;;;;;;2.87;2.37;;;;;;;22.15;100.00;101668.63;1791335;78;936660;-75
2021/06/26 18:12:26;;;;;;;2.90;2.30;;;;;;;22.18;100.00;101673.00;1799380;79;936693;-77
2021/06/26 18:14:56;;;;;;;2.87;2.20;;;;;;;22.16;100.00;101675.34;1819474;77;936505;-78
2021/06/26 18:17:26;;;;;;;2.40;2.20;;;;;;;22.15;100.00;101678.53;1781589;79;936673;-79
2021/06/26 18:19:57;;;;;;;2.62;2.30;;;;;;;22.02;100.00;101676.20;1795074;78;936636;-74
2021/06/26 18:22:27;;;;;;;2.43;2.00;;;;;;;22.07;100.00;101682.25;1831233;77;934844;-78
2021/06/26 18:24:57;;;;;;;3.00;2.20;;;;;;;22.11;100.00;101675.56;1807815;77;936600;-77
2021/06/26 18:27:27;;;;;;;3.40;2.50;;;;;;;21.86;100.00;101679.94;1790707;78;934769;-72
2021/06/26 18:29:57;;;;;;;4.30;2.72;;;;;;;21.63;100.00;101687.86;1828368;77;936751;-73
2021/06/26 18:32:27;;;;;;;4.30;2.80;;;;;;;21.52;100.00;101685.98;1805548;77;935058;-72
2021/06/26 18:34:57;;;;;;;2.98;2.52;;;;;;;21.52;100.00;101693.66;1793007;78;936840;-76
2021/06/26 18:37:27;;;;;;;2.60;2.40;;;;;;;21.45;100.00;101691.34;1775510;80;934961;-72
2021/06/26 18:39:57;;;;;;;2.30;2.10;;;;;;;21.37;100.00;101697.86;1764055;78;936527;-72
2021/06/26 18:42:27;;;;;;;2.70;2.03;;;;;;;21.25;100.00;101691.50;1781565;78;934680;-73
2021/06/26 18:47:51;;;;;;;2.40;2.17;;;;;;;21.21;100.00;101693.34;1945434;73;39607;-73
2021/06/26 18:53:16;;;;;;;2.97;2.30;;;;;;;21.11;100.00;101703.55;1882714;75;86316;-75
2021/06/26 18:58:42;;;;;;;2.40;2.20;;;;;;;20.98;100.00;101700.33;1921703;73;39490;-75
2021/06/26 19:04:09;;;;;;;2.53;2.33;;;;;;;20.92;100.00;101705.09;1876998;75;86470;-76
2021/06/26 19:09:37;;;;;;;2.03;1.80;;;;;;;21.19;100.00;101707.55;1925915;73;39577;-70
2021/06/26 19:12:10;;;;;;;1.83;1.73;;;;;;;21.13;100.00;101704.67;1840259;76;933777;-73
2021/06/26 19:17:35;;;;;;;2.53;1.90;;;;;;;21.11;100.00;101705.55;1949231;73;39559;-76
2021/06/26 19:23:00;;;;;;;1.90;1.80;;;;;;;20.98;100.00;101710.22;1943812;73;39727;-78
2021/06/26 19:28:27;;;;;;;2.60;2.23;;;;;;;20.90;100.00;101718.13;1760639;80;86611;-72
2021/06/26 19:33:54;;;;;;;2.07;1.90;;;;;;;20.80;100.00;101722.11;1925596;73;39535;-74
2021/06/26 19:39:18;;;;;;;2.30;2.10;;;;;;;20.73;100.00;101725.20;1837413;77;86137;-73
2021/06/26 19:44:43;;;;;;;2.13;1.87;;;;;;;20.68;100.00;101732.41;1936054;73;39666;-78
2021/06/26 19:50:11;;;;;;;2.50;1.87;;;;;;;20.58;100.00;101730.74;1892291;74;86493;-75
2021/06/26 19:55:36;;;;;;;2.30;1.70;;;;;;;20.52;100.00;101735.48;1938991;72;39473;-76
2021/06/26 20:03:51;;;;;;;1.87;1.73;;;;;;;20.31;100.00;101747.42;1954059;71;40201;-72
2021/06/26 20:06:25;;;;;;;3.07;1.80;;;;;;;20.30;100.00;101750.56;1880107;74;934504;-76
2021/06/26 20:11:59;;;;;;;1.97;1.70;;;;;;;20.32;100.00;101765.98;1943305;72;40404;-75
2021/06/26 20:17:27;;;;;;;1.43;1.33;;;;;;;20.21;100.00;101768.85;1795365;77;86353;-74
2021/06/26 20:22:52;;;;;;;2.60;1.73;;;;;;;20.15;100.00;101763.09;1943007;73;39623;-71
2021/06/26 20:28:17;;;;;;;1.77;1.40;;;;;;;20.07;100.00;101763.91;1882691;75;86680;-78
2021/06/26 20:33:41;;;;;;;1.93;1.23;;;;;;;19.99;100.00;101772.59;1947288;73;39545;-75
2021/06/26 20:39:06;;;;;;;1.43;1.20;;;;;;;19.90;100.00;101771.73;1909809;74;86577;-72
2021/06/26 20:44:30;;;;;;;1.30;1.20;;;;;;;19.74;100.00;101776.72;1793607;79;85566;-78
2021/06/26 20:49:53;;;;;;;1.50;1.30;;;;;;;19.53;100.00;101777.86;1945214;73;39464;-75
2021/06/26 20:55:18;;;;;;;2.20;1.33;;;;;;;19.52;100.00;101783.23;1882625;75;86579;-75
2021/06/26 21:00:42;;;;;;;2.13;1.50;;;;;;;19.23;100.00;101792.72;1947252;73;39494;-78
2021/06/26 21:06:07;;;;;;;1.83;1.70;;;;;;;19.30;100.00;101785.47;1876962;75;86465;-71
2021/06/26 21:11:32;;;;;;;2.67;1.63;;;;;;;19.21;100.00;101788.00;1833599;78;86718;-75